Time;durP1;ratioP1;P1;durP2;ratioP2;P2;SDS_P1;SDS_P2;PMS_P1;PMS_P2;Temp;Humidity;BMP_temperature;BMP_pressure;BME280_temperature;BME280_humidity;BME280_pressure;Samples;Min_cycle;Max_cycle;Signal;HPM_P1;HPM_P2
2022/09/06 00:01:13;;;;;;;0.45;0.20;;;;;;;29.96;19.16;100983.97;5006117;28;20062;-76
2022/09/06 00:03:42;;;;;;;1.60;0.20;;;;;;;29.93;19.81;100984.09;5007488;28;20058;-78
2022/09/06 00:06:13;;;;;;;0.50;0.30;;;;;;;29.90;19.19;100980.72;5009415;28;20049;-79
2022/09/06 00:08:43;;;;;;;1.05;0.38;;;;;;;29.86;18.95;100983.53;5007811;28;20054;-75
2022/09/06 00:11:14;;;;;;;0.45;0.30;;;;;;;29.79;18.55;100971.41;5007549;28;20042;-78
2022/09/06 00:13:43;;;;;;;0.20;0.20;;;;;;;29.75;19.00;100969.81;5009048;28;20251;-78
2022/09/06 00:16:13;;;;;;;0.20;0.20;;;;;;;29.70;18.52;100966.50;5008539;28;20103;-77
2022/09/06 00:18:42;;;;;;;0.28;0.20;;;;;;;29.59;18.66;100952.78;5010422;28;20388;-78
2022/09/06 00:21:21;;;;;;;0.73;0.20;;;;;;;29.60;19.02;100955.41;5007136;28;20072;-76
2022/09/06 00:23:50;;;;;;;1.25;0.20;;;;;;;29.54;18.55;100955.66;5005995;28;20488;-79
2022/09/06 00:26:21;;;;;;;0.68;0.20;;;;;;;29.53;19.16;100950.44;5007308;28;20050;-76
2022/09/06 00:28:50;;;;;;;0.22;0.20;;;;;;;29.49;19.34;100947.03;5005124;28;20454;-80
2022/09/06 00:31:21;;;;;;;0.20;0.13;;;;;;;29.44;19.44;100939.25;5005241;28;20119;-76
2022/09/06 00:33:50;;;;;;;1.20;0.30;;;;;;;29.37;19.96;100937.81;5006632;28;20046;-81
2022/09/06 00:36:19;;;;;;;0.50;0.40;;;;;;;29.34;20.68;100937.94;5009358;28;20119;-79
2022/09/06 00:38:48;;;;;;;1.55;0.30;;;;;;;29.31;18.98;100937.22;5004989;28;20146;-80
2022/09/06 00:41:19;;;;;;;0.32;0.30;;;;;;;29.21;19.03;100936.78;5007643;28;20067;-78
2022/09/06 00:43:48;;;;;;;1.60;0.37;;;;;;;29.17;19.71;100935.19;5004893;28;20408;-78
2022/09/06 00:46:20;;;;;;;0.40;0.28;;;;;;;29.14;20.11;100930.00;5010437;28;20120;-79
2022/09/06 00:48:51;;;;;;;0.70;0.30;;;;;;;29.09;20.58;100926.66;5009824;28;20418;-76
2022/09/06 00:51:21;;;;;;;0.65;0.38;;;;;;;29.11;21.54;100924.78;5009819;28;20411;-79
2022/09/06 00:53:58;;;;;;;1.38;0.30;;;;;;;29.09;21.20;100918.66;5002283;28;20393;-78
2022/09/06 00:56:30;;;;;;;0.40;0.30;;;;;;;29.00;20.88;100919.91;5006133;28;20074;-81
2022/09/06 00:58:58;;;;;;;;;;;;;;;28.81;20.36;100912.72;5007661;28;20058;-79
2022/09/06 01:01:26;;;;;;;0.32;0.30;;;;;;;28.74;21.47;100915.75;5012431;28;20411;-79
2022/09/06 01:03:55;;;;;;;0.68;0.30;;;;;;;28.63;21.47;100910.03;5004902;28;20572;-77
2022/09/06 01:06:27;;;;;;;1.40;0.30;;;;;;;28.52;21.94;100908.69;5013516;28;20407;-79
2022/09/06 01:09:08;;;;;;;0.70;0.30;;;;;;;28.47;22.30;100908.00;5012104;28;20046;-79
2022/09/06 01:11:54;;;;;;;0.90;0.30;;;;;;;28.41;22.67;100903.78;5007353;28;20053;-79
2022/09/06 01:14:36;;;;;;;2.47;0.20;;;;;;;28.35;23.09;100897.88;5008800;28;20058;-79
2022/09/06 01:17:08;;;;;;;;;;;;;;;28.26;23.08;100900.91;5012878;28;20056;-80
2022/09/06 01:20:14;;;;;;;3.17;0.40;;;;;;;28.16;23.24;100890.66;5011180;28;20347;-78
2022/09/06 01:23:35;;;;;;;0.65;0.30;;;;;;;28.06;23.99;100896.41;4989467;28;20500;-82
2022/09/06 01:26:18;;;;;;;1.73;0.35;;;;;;;27.94;24.25;100889.81;4926930;28;20126;-81
2022/09/06 01:28:49;;;;;;;0.30;0.30;;;;;;;27.88;24.79;100890.94;4923500;28;20047;-79
2022/09/06 01:31:25;;;;;;;0.88;0.50;;;;;;;27.84;24.96;100885.81;4969386;28;20515;-79
2022/09/06 01:34:12;;;;;;;0.28;0.25;;;;;;;27.81;25.66;100885.88;5009886;28;20052;-77
2022/09/06 01:36:47;;;;;;;0.73;0.50;;;;;;;27.72;25.94;100881.81;5001358;28;20677;-79
2022/09/06 01:39:28;;;;;;;1.38;0.40;;;;;;;27.66;26.15;100877.59;5005355;28;20061;-81
2022/09/06 01:41:59;;;;;;;1.13;0.40;;;;;;;27.61;26.08;100874.25;4995424;28;20046;-83
2022/09/06 01:44:31;;;;;;;1.37;0.60;;;;;;;27.58;26.27;100874.38;4985209;28;20058;-82
2022/09/06 01:47:07;;;;;;;1.67;0.50;;;;;;;27.53;26.72;100874.56;4989183;28;20058;-79
2022/09/06 01:49:47;;;;;;;0.63;0.30;;;;;;;27.45;26.64;100874.00;4994242;28;20053;-80
2022/09/06 01:52:20;;;;;;;0.90;0.52;;;;;;;27.33;26.88;100867.38;4988762;28;20054;-76
2022/09/06 01:55:06;;;;;;;1.08;0.50;;;;;;;27.26;26.38;100871.19;4985279;28;20046;-78
2022/09/06 01:57:50;;;;;;;0.88;0.50;;;;;;;27.15;27.54;100876.00;4987405;28;20061;-81
2022/09/06 02:00:23;;;;;;;1.00;0.40;;;;;;;27.01;28.50;100867.66;4987929;28;20127;-78
2022/09/06 02:03:02;;;;;;;2.58;0.65;;;;;;;26.86;28.28;100871.75;4990245;28;20564;-76
2022/09/06 02:05:36;;;;;;;1.23;0.50;;;;;;;26.77;28.02;100865.00;4988821;28;20065;-74
2022/09/06 02:08:09;;;;;;;0.55;0.40;;;;;;;26.67;28.49;100869.78;4995775;28;20045;-77
2022/09/06 02:10:42;;;;;;;1.70;0.70;;;;;;;26.59;28.13;100870.97;4993658;28;20055;-80
2022/09/06 02:13:13;;;;;;;1.25;0.50;;;;;;;26.52;29.25;100865.81;4992666;28;20054;-78
2022/09/06 02:15:48;;;;;;;3.13;0.50;;;;;;;26.47;29.41;100866.91;4991831;28;20142;-79
2022/09/06 02:18:22;;;;;;;0.40;0.40;;;;;;;26.43;29.78;100862.63;4994505;28;20058;-79
2022/09/06 02:20:54;;;;;;;0.85;0.50;;;;;;;26.36;29.08;100863.78;4991450;28;20046;-78
2022/09/06 02:23:26;;;;;;;2.17;0.50;;;;;;;26.25;30.45;100861.47;4993982;28;20070;-79
2022/09/06 02:25:58;;;;;;;1.48;0.40;;;;;;;26.08;29.92;100865.56;4992416;28;20914;-78
2022/09/06 02:28:27;;;;;;;2.38;0.63;;;;;;;25.97;30.34;100859.75;4998337;28;20471;-78
2022/09/06 02:31:00;;;;;;;2.30;0.60;;;;;;;25.87;30.25;100858.34;4992318;28;20057;-76
2022/09/06 02:33:32;;;;;;;2.60;0.38;;;;;;;25.76;30.67;100863.94;4996668;28;20054;-76
2022/09/06 02:36:06;;;;;;;2.92;0.50;;;;;;;25.63;30.88;100863.47;5000685;28;20042;-81
2022/09/06 02:38:37;;;;;;;1.25;0.60;;;;;;;25.54;31.39;100869.06;4988733;28;20118;-77
2022/09/06 02:41:07;;;;;;;1.95;0.60;;;;;;;25.45;31.54;100864.03;5007296;28;20072;-77
2022/09/06 02:43:36;;;;;;;1.02;0.63;;;;;;;25.36;31.56;100869.59;5009558;28;20054;-77
2022/09/06 02:46:06;;;;;;;1.08;0.52;;;;;;;25.28;31.77;100868.03;5014844;28;20068;-78
2022/09/06 02:48:35;;;;;;;2.58;0.50;;;;;;;25.20;32.22;100866.56;5006050;28;20049;-77
2022/09/06 02:51:05;;;;;;;0.80;0.50;;;;;;;25.04;32.93;100864.31;5012593;28;20045;-75
2022/09/06 02:53:34;;;;;;;1.45;0.55;;;;;;;24.92;33.21;100867.28;5012238;28;20084;-76
2022/09/06 02:56:03;;;;;;;2.35;0.70;;;;;;;24.79;33.39;100864.13;5006670;28;20590;-77
2022/09/06 02:58:31;;;;;;;0.63;0.50;;;;;;;24.69;33.52;100864.44;5010864;28;20081;-76
2022/09/06 03:01:00;;;;;;;0.98;0.50;;;;;;;24.58;34.15;100864.69;5012859;28;20542;-77
2022/09/06 03:03:30;;;;;;;2.35;0.50;;;;;;;24.48;35.07;100869.38;5004335;28;20076;-78
2022/09/06 03:05:59;;;;;;;2.17;0.65;;;;;;;24.34;36.45;100869.72;5011557;28;20092;-79
2022/09/06 03:08:32;;;;;;;1.33;0.52;;;;;;;24.25;35.95;100868.16;5017486;28;20135;-79
2022/09/06 03:11:01;;;;;;;0.93;0.52;;;;;;;24.20;34.87;100869.19;5013664;28;20503;-79
2022/09/06 03:13:30;;;;;;;1.38;0.57;;;;;;;24.18;34.77;100871.00;5012944;28;20049;-77
2022/09/06 03:16:00;;;;;;;2.00;0.43;;;;;;;24.12;35.04;100874.69;5006555;28;20711;-81
2022/09/06 03:18:32;;;;;;;1.92;0.70;;;;;;;24.09;35.04;100876.53;5015361;28;20423;-82
2022/09/06 03:21:01;;;;;;;0.90;0.40;;;;;;;24.03;35.05;100882.84;5010200;28;20038;-80
2022/09/06 03:23:30;;;;;;;2.65;0.88;;;;;;;23.98;35.42;100882.97;5008496;28;20427;-79
2022/09/06 03:25:59;;;;;;;0.75;0.38;;;;;;;23.94;35.90;100883.06;5011625;28;20084;-79
2022/09/06 03:28:27;;;;;;;2.00;0.40;;;;;;;23.87;35.75;100887.63;5012499;28;20136;-79
2022/09/06 03:30:56;;;;;;;0.95;0.50;;;;;;;23.75;36.31;100882.59;5013957;28;20061;-80
2022/09/06 03:33:25;;;;;;;2.05;0.40;;;;;;;23.67;36.60;100879.25;5012328;28;20069;-78
2022/09/06 03:35:56;;;;;;;1.70;0.65;;;;;;;23.60;36.50;100883.81;5017779;28;20049;-80
2022/09/06 03:38:26;;;;;;;2.67;0.60;;;;;;;23.57;36.34;100886.50;5010783;28;20068;-79
2022/09/06 03:40:55;;;;;;;2.85;0.60;;;;;;;23.55;36.91;100886.56;4998766;28;20061;-80
2022/09/06 03:43:25;;;;;;;2.00;0.50;;;;;;;23.49;36.83;100876.13;4987830;28;20049;-80
2022/09/06 03:45:55;;;;;;;2.00;0.50;;;;;;;23.45;36.70;100887.63;4991077;28;20046;-78
2022/09/06 03:48:26;;;;;;;1.13;0.50;;;;;;;23.40;37.62;100889.53;4987432;28;20054;-82
2022/09/06 03:50:58;;;;;;;1.33;0.60;;;;;;;23.34;37.59;100893.19;4987800;28;20050;-84
2022/09/06 03:53:28;;;;;;;0.38;0.35;;;;;;;23.30;37.75;100895.91;4991341;28;20054;-80
2022/09/06 03:55:58;;;;;;;4.35;0.52;;;;;;;23.21;38.96;100892.53;4990507;28;20057;-78
2022/09/06 03:58:30;;;;;;;1.42;0.80;;;;;;;23.13;38.35;100899.75;4983120;28;20039;-83
2022/09/06 04:01:07;;;;;;;0.93;0.50;;;;;;;23.06;38.31;100895.50;4994949;28;20050;-83
2022/09/06 04:03:36;;;;;;;0.80;0.50;;;;;;;23.01;38.59;100892.06;4982387;28;20051;-82
2022/09/06 04:06:07;;;;;;;2.33;0.70;;;;;;;22.97;38.37;100904.41;4981923;28;20061;-83
2022/09/06 04:08:36;;;;;;;3.92;0.55;;;;;;;22.94;39.95;100903.63;4992118;28;20118;-83
2022/09/06 04:11:06;;;;;;;0.80;0.35;;;;;;;22.80;38.44;100888.91;4989518;28;20053;-82
2022/09/06 04:13:35;;;;;;;1.02;0.50;;;;;;;22.84;37.93;100897.66;4992701;28;20053;-83
2022/09/06 04:16:05;;;;;;;2.38;0.70;;;;;;;22.83;38.42;100900.31;4989247;28;20085;-83
2022/09/06 04:18:33;;;;;;;1.08;0.60;;;;;;;22.80;38.70;100895.97;4996540;28;20054;-83
2022/09/06 04:21:02;;;;;;;0.73;0.52;;;;;;;22.79;38.76;100896.84;4994217;28;20046;-81
2022/09/06 04:23:32;;;;;;;2.05;0.60;;;;;;;22.78;38.21;100903.03;4993936;28;20057;-80
2022/09/06 04:26:01;;;;;;;0.65;0.50;;;;;;;22.73;38.28;100903.13;4993836;28;20051;-83
2022/09/06 04:28:29;;;;;;;1.30;0.80;;;;;;;22.67;38.73;100895.31;4989996;28;20054;-81
2022/09/06 04:30:59;;;;;;;0.70;0.43;;;;;;;22.64;38.96;100900.66;4984973;28;20118;-82
2022/09/06 04:33:29;;;;;;;3.00;0.68;;;;;;;22.60;38.71;100904.25;4990320;28;20057;-79
2022/09/06 04:36:00;;;;;;;1.42;0.50;;;;;;;22.53;38.44;100902.63;4991653;28;20082;-79
2022/09/06 04:38:30;;;;;;;1.50;0.73;;;;;;;22.49;38.41;100900.91;4988977;28;20044;-80
2022/09/06 04:41:00;;;;;;;1.13;0.60;;;;;;;22.44;38.79;100902.78;5008198;28;20065;-81
2022/09/06 04:43:28;;;;;;;1.65;0.60;;;;;;;22.34;39.39;100900.28;5009645;28;20046;-79
2022/09/06 04:45:57;;;;;;;1.10;0.50;;;;;;;22.28;39.74;100897.75;5014482;28;20120;-80
2022/09/06 04:48:26;;;;;;;3.75;0.63;;;;;;;22.23;39.30;100902.25;5011368;28;20479;-80
2022/09/06 04:50:54;;;;;;;2.00;0.65;;;;;;;22.18;38.73;100890.88;5016436;28;20046;-79
2022/09/06 04:53:23;;;;;;;2.38;0.60;;;;;;;22.14;38.14;100894.44;5013756;28;20046;-77
2022/09/06 04:55:51;;;;;;;1.63;0.50;;;;;;;22.11;39.85;100894.50;5006949;28;20549;-82
2022/09/06 04:58:21;;;;;;;1.05;0.60;;;;;;;22.04;40.46;100900.78;5008427;28;20057;-81
2022/09/06 05:00:50;;;;;;;1.52;0.50;;;;;;;21.94;39.45;100895.66;5006832;28;20050;-85
2022/09/06 05:03:19;;;;;;;1.08;0.45;;;;;;;21.83;39.90;100900.22;5011571;28;20080;-81
2022/09/06 05:05:47;;;;;;;1.88;0.70;;;;;;;21.76;39.48;100901.16;5011017;28;20085;-82
2022/09/06 05:08:16;;;;;;;5.47;1.63;;;;;;;21.69;39.67;100892.50;5009521;28;20527;-81
2022/09/06 05:10:45;;;;;;;1.20;0.60;;;;;;;21.64;40.18;100891.69;5012779;28;20042;-83
2022/09/06 05:13:13;;;;;;;1.88;0.50;;;;;;;21.56;39.54;100890.94;5012446;28;20050;-85
2022/09/06 05:15:43;;;;;;;2.10;0.40;;;;;;;21.49;39.79;100887.50;5014081;28;20041;-84
2022/09/06 05:18:12;;;;;;;2.13;0.65;;;;;;;21.44;40.30;100891.97;5017168;28;20049;-80
2022/09/06 05:20:40;;;;;;;2.33;0.77;;;;;;;21.39;40.29;100885.84;5007137;28;20041;-80
2022/09/06 05:23:09;;;;;;;1.65;0.60;;;;;;;21.32;40.58;100892.06;5006004;28;20046;-80
2022/09/06 05:25:38;;;;;;;2.88;0.70;;;;;;;21.26;40.22;100892.19;5006938;28;20054;-81
2022/09/06 05:28:06;;;;;;;1.65;0.57;;;;;;;21.22;40.79;100890.47;5006810;28;20057;-84
2022/09/06 05:30:34;;;;;;;1.95;0.50;;;;;;;21.17;40.69;100894.91;5008642;28;20084;-79
2022/09/06 05:33:05;;;;;;;1.52;0.43;;;;;;;21.12;39.90;100890.56;5010160;28;20042;-83
2022/09/06 05:35:33;;;;;;;2.10;0.40;;;;;;;21.05;39.70;100890.66;5003803;28;20617;-82
2022/09/06 05:38:02;;;;;;;2.40;0.65;;;;;;;20.99;39.22;100888.97;5010654;28;20042;-84
2022/09/06 05:40:31;;;;;;;1.02;0.50;;;;;;;20.93;39.73;100878.50;4999214;28;20116;-81
2022/09/06 05:42:59;;;;;;;1.85;0.60;;;;;;;20.89;40.37;100885.56;4989225;28;20058;-78
2022/09/06 05:45:28;;;;;;;2.17;0.50;;;;;;;20.83;39.85;100884.78;4988167;28;20378;-81
2022/09/06 05:47:56;;;;;;;0.93;0.60;;;;;;;20.76;40.56;100880.47;4987527;28;20045;-78
2022/09/06 05:50:27;;;;;;;1.88;0.77;;;;;;;20.70;41.63;100876.13;4990760;28;20546;-83
2022/09/06 05:52:55;;;;;;;1.33;0.60;;;;;;;20.65;40.89;100873.53;4991874;28;20488;-82
2022/09/06 05:55:24;;;;;;;2.88;0.63;;;;;;;20.60;41.38;100870.09;4991258;28;20042;-83
2022/09/06 05:57:52;;;;;;;3.33;0.57;;;;;;;20.55;40.68;100871.88;4992438;28;20495;-82
2022/09/06 06:00:21;;;;;;;1.23;0.57;;;;;;;20.53;40.31;100867.53;4985882;28;20045;-80
2022/09/06 06:02:50;;;;;;;1.60;0.50;;;;;;;20.50;40.31;100878.91;4988799;28;20050;-83
2022/09/06 06:05:18;;;;;;;2.00;0.50;;;;;;;20.46;40.24;100871.97;4992713;28;20887;-83
2022/09/06 06:07:48;;;;;;;1.02;0.50;;;;;;;20.42;39.56;100872.88;4990558;28;20042;-86
2022/09/06 06:10:17;;;;;;;0.50;0.35;;;;;;;20.39;40.29;100872.91;4997203;28;20177;-85
2022/09/06 06:12:45;;;;;;;0.75;0.43;;;;;;;20.35;40.29;100869.44;4989737;28;20057;-83
2022/09/06 06:15:14;;;;;;;1.38;0.50;;;;;;;20.32;40.54;100868.56;4991297;28;20099;-83
2022/09/06 06:17:43;;;;;;;1.63;0.50;;;;;;;20.29;41.11;100869.47;4998709;28;20049;-82
2022/09/06 06:20:11;;;;;;;0.88;0.45;;;;;;;20.24;40.37;100872.13;4985643;28;20491;-84
2022/09/06 06:22:40;;;;;;;1.15;0.43;;;;;;;20.21;40.53;100864.28;4985796;28;20077;-83
2022/09/06 06:25:10;;;;;;;2.13;0.70;;;;;;;20.19;40.32;100867.81;4989238;28;20054;-82
2022/09/06 06:27:39;;;;;;;2.05;0.50;;;;;;;20.17;40.01;100874.84;4990534;28;20050;-82
2022/09/06 06:30:09;;;;;;;1.27;0.47;;;;;;;20.12;40.14;100868.75;4988240;28;20555;-83
2022/09/06 06:32:37;;;;;;;1.92;0.68;;;;;;;20.07;40.65;100864.41;4988235;28;20084;-84
2022/09/06 06:35:08;;;;;;;1.00;0.47;;;;;;;20.04;40.29;100868.81;4988578;28;20590;-86
2022/09/06 06:37:36;;;;;;;1.88;0.70;;;;;;;19.99;40.67;100866.22;4987590;28;20058;-84
2022/09/06 06:40:05;;;;;;;1.58;0.50;;;;;;;19.94;40.37;100870.63;4996544;28;20116;-83
2022/09/06 06:42:36;;;;;;;4.07;0.60;;;;;;;19.90;40.26;100865.41;4987955;28;20045;-82
2022/09/06 06:45:04;;;;;;;2.30;0.50;;;;;;;19.85;40.03;100863.69;4991434;28;20570;-83
2022/09/06 06:47:33;;;;;;;5.80;0.80;;;;;;;19.79;41.13;100862.84;4993162;28;20542;-83
2022/09/06 06:50:02;;;;;;;3.35;0.60;;;;;;;19.75;41.86;100864.66;4992312;28;20042;-84
2022/09/06 06:52:30;;;;;;;2.30;0.60;;;;;;;19.70;42.01;100858.56;4990575;28;20647;-84
2022/09/06 06:54:59;;;;;;;1.63;0.82;;;;;;;19.66;41.65;100851.53;4988138;28;20876;-84
2022/09/06 06:57:27;;;;;;;2.38;0.47;;;;;;;19.61;41.86;100861.22;4992119;28;20046;-84
2022/09/06 06:59:58;;;;;;;1.02;0.40;;;;;;;19.52;43.90;100864.75;4995628;28;20104;-85
2022/09/06 07:02:26;;;;;;;1.15;0.45;;;;;;;19.44;43.41;100862.16;4996893;28;20067;-84
2022/09/06 07:04:55;;;;;;;1.83;0.65;;;;;;;19.38;43.17;100856.97;4996146;28;20511;-84
2022/09/06 07:07:23;;;;;;;3.58;0.50;;;;;;;19.37;42.68;100852.56;4994113;28;20042;-85
2022/09/06 07:09:53;;;;;;;6.00;1.77;;;;;;;19.35;41.82;100849.06;4992066;28;20058;-85
2022/09/06 07:12:21;;;;;;;1.88;0.50;;;;;;;19.32;41.91;100856.13;4991084;28;20046;-84
2022/09/06 07:14:50;;;;;;;1.52;0.55;;;;;;;19.29;43.04;100848.22;4994410;28;20042;-84
2022/09/06 07:17:20;;;;;;;1.42;0.60;;;;;;;19.24;43.18;100851.78;4992247;28;20053;-83
2022/09/06 07:19:49;;;;;;;0.95;0.40;;;;;;;19.22;41.98;100850.03;4995219;28;20046;-83
2022/09/06 07:22:17;;;;;;;1.85;0.60;;;;;;;19.17;41.80;100847.44;4990018;28;20100;-85
2022/09/06 07:24:46;;;;;;;1.48;0.57;;;;;;;19.15;42.08;100853.53;4990631;28;20054;-84
2022/09/06 07:27:14;;;;;;;1.25;0.68;;;;;;;19.08;43.43;100847.47;5001979;28;20046;-81
2022/09/06 07:29:43;;;;;;;2.30;0.57;;;;;;;19.00;43.32;100844.88;4990206;28;20054;-82
2022/09/06 07:32:11;;;;;;;3.55;0.50;;;;;;;18.94;44.15;100844.88;4991331;28;20101;-81
2022/09/06 07:34:41;;;;;;;2.20;0.50;;;;;;;18.86;43.88;100854.53;4990844;28;20515;-84
2022/09/06 07:37:10;;;;;;;1.48;0.55;;;;;;;18.81;43.70;100851.06;4990367;28;20046;-82
2022/09/06 07:39:40;;;;;;;1.38;0.43;;;;;;;18.77;43.14;100858.06;4988132;28;20046;-82
2022/09/06 07:42:08;;;;;;;6.45;0.70;;;;;;;18.78;43.87;100853.69;5014156;28;20101;-81
2022/09/06 07:44:37;;;;;;;1.67;0.70;;;;;;;18.76;43.31;100853.66;5009334;28;20113;-83
2022/09/06 07:47:07;;;;;;;1.65;0.50;;;;;;;18.74;42.88;100857.16;5006012;28;20959;-83
2022/09/06 07:49:35;;;;;;;6.53;0.80;;;;;;;18.68;43.23;100862.41;5007167;28;20041;-83
2022/09/06 07:52:05;;;;;;;2.75;0.70;;;;;;;18.58;46.21;100859.81;5007985;28;20049;-79
2022/09/06 07:54:34;;;;;;;1.88;0.50;;;;;;;18.48;46.87;100860.69;5018573;28;20048;-83
2022/09/06 07:57:03;;;;;;;1.00;0.50;;;;;;;18.42;45.31;100861.59;5007251;28;20793;-81
2022/09/06 07:59:31;;;;;;;1.10;0.60;;;;;;;18.39;45.59;100855.47;5008847;28;20054;-83
2022/09/06 08:02:00;;;;;;;0.45;0.30;;;;;;;18.38;45.08;100864.22;5007450;28;20121;-82
2022/09/06 08:04:28;;;;;;;1.02;0.50;;;;;;;18.34;44.66;100862.47;5010755;28;20522;-81
2022/09/06 08:06:57;;;;;;;1.33;0.40;;;;;;;18.31;44.41;100857.22;5016110;28;20407;-84
2022/09/06 08:09:27;;;;;;;0.70;0.50;;;;;;;18.27;44.97;100852.88;5012307;28;20054;-83
2022/09/06 08:11:56;;;;;;;0.85;0.50;;;;;;;18.24;45.02;100855.50;5012363;28;20455;-84
2022/09/06 08:14:25;;;;;;;1.63;0.60;;;;;;;18.18;46.33;100856.34;5004570;28;20172;-82
2022/09/06 08:16:53;;;;;;;0.70;0.40;;;;;;;18.11;46.35;100854.63;5007344;28;20050;-83
2022/09/06 08:19:22;;;;;;;1.42;0.60;;;;;;;18.07;46.78;100858.97;5013765;28;20503;-80
2022/09/06 08:21:57;;;;;;;1.25;0.40;;;;;;;18.03;48.02;100857.25;5005326;28;20389;-80
2022/09/06 08:24:28;;;;;;;0.95;0.52;;;;;;;18.01;46.80;100853.75;5005776;28;20050;-81
2022/09/06 08:26:56;;;;;;;1.77;0.47;;;;;;;17.99;46.13;100860.72;5008931;28;20053;-82
2022/09/06 08:29:26;;;;;;;1.48;0.52;;;;;;;17.98;45.91;100858.97;5012245;28;20411;-82
2022/09/06 08:31:55;;;;;;;2.10;0.63;;;;;;;17.95;45.52;100854.59;5006315;28;20113;-81
2022/09/06 08:34:23;;;;;;;4.07;0.68;;;;;;;17.94;46.22;100862.47;5003165;28;20042;-81
2022/09/06 08:36:52;;;;;;;1.00;0.40;;;;;;;17.91;45.96;100849.34;5007258;28;20046;-79
2022/09/06 08:39:21;;;;;;;1.00;0.50;;;;;;;17.87;45.05;100850.25;5009286;28;20050;-81
2022/09/06 08:41:55;;;;;;;3.80;0.50;;;;;;;17.83;46.07;100856.34;5009053;28;20058;-80
2022/09/06 08:44:27;;;;;;;0.55;0.40;;;;;;;17.77;45.99;100850.22;5006439;28;20490;-81
2022/09/06 08:46:58;;;;;;;3.40;0.60;;;;;;;17.74;45.76;100850.19;5006906;28;20416;-81
2022/09/06 08:49:30;;;;;;;2.33;0.63;;;;;;;17.68;46.52;100850.16;5008168;28;20042;-80
2022/09/06 08:52:37;;;;;;;0.93;0.50;;;;;;;17.62;46.64;100849.31;5007021;28;20504;-79
2022/09/06 08:55:25;;;;;;;1.05;0.50;;;;;;;17.59;46.03;100850.13;4930364;29;20139;-81
2022/09/06 08:58:10;;;;;;;1.25;0.50;;;;;;;17.55;45.63;100845.81;4932657;29;20644;-83
2022/09/06 09:00:41;;;;;;;1.98;0.60;;;;;;;17.50;46.36;100837.03;4991842;28;20053;-83
2022/09/06 09:03:12;;;;;;;1.27;0.50;;;;;;;17.47;47.04;100844.91;5006883;28;20085;-82
2022/09/06 09:05:43;;;;;;;1.33;0.60;;;;;;;17.44;47.10;100840.53;5007460;28;20522;-82
2022/09/06 09:08:23;;;;;;;0.63;0.50;;;;;;;17.40;46.98;100838.78;5009269;28;20049;-82
2022/09/06 09:10:55;;;;;;;1.83;0.60;;;;;;;17.34;47.55;100839.63;5008596;28;20529;-82
2022/09/06 09:13:33;;;;;;;1.63;0.55;;;;;;;17.30;48.02;100835.25;5014245;28;20128;-81
2022/09/06 09:16:02;;;;;;;2.28;0.60;;;;;;;17.24;47.94;100827.38;5006467;28;20045;-82
2022/09/06 09:18:36;;;;;;;1.17;0.68;;;;;;;17.18;47.66;100837.84;5020038;28;20061;-82
2022/09/06 09:21:05;;;;;;;2.08;0.65;;;;;;;17.14;49.06;100836.09;5001593;28;20330;-82
2022/09/06 09:23:33;;;;;;;0.85;0.40;;;;;;;17.11;48.69;100834.34;5014944;28;20054;-82
2022/09/06 09:26:06;;;;;;;1.55;0.55;;;;;;;17.09;48.62;100832.59;5010499;28;20531;-81
2022/09/06 09:28:36;;;;;;;;;;;;;;;17.05;48.58;100830.81;5007800;28;20050;-81
2022/09/06 09:31:04;;;;;;;1.77;0.50;;;;;;;17.01;48.03;100836.88;5013725;28;20562;-79
2022/09/06 09:33:37;;;;;;;2.83;0.40;;;;;;;16.95;48.48;100829.91;5011282;28;20053;-81
2022/09/06 09:36:10;;;;;;;3.05;0.50;;;;;;;16.91;48.60;100823.78;5003841;28;20077;-81
2022/09/06 09:38:51;;;;;;;2.65;0.57;;;;;;;16.87;49.39;100829.84;5003612;28;20418;-82
2022/09/06 09:41:37;;;;;;;1.10;0.50;;;;;;;16.84;48.92;100826.38;5006598;28;20581;-81
2022/09/06 09:44:11;;;;;;;1.40;0.50;;;;;;;16.82;48.31;100825.47;5009501;28;20068;-82
2022/09/06 09:46:40;;;;;;;3.30;0.55;;;;;;;16.78;48.98;100824.56;5005390;28;20052;-82
2022/09/06 09:49:11;;;;;;;1.33;0.45;;;;;;;16.71;48.53;100821.03;5003419;28;20654;-81
2022/09/06 09:51:41;;;;;;;4.22;0.82;;;;;;;16.66;49.47;100816.66;5005042;28;20053;-80
2022/09/06 09:54:11;;;;;;;2.33;0.88;;;;;;;16.55;49.16;100804.38;5006829;28;20716;-81
2022/09/06 09:56:47;;;;;;;2.45;0.50;;;;;;;16.58;49.10;100818.34;5004463;28;20049;-82
2022/09/06 09:59:24;;;;;;;0.45;0.40;;;;;;;16.57;48.50;100819.22;5013319;28;20061;-83
2022/09/06 10:01:56;;;;;;;0.85;0.47;;;;;;;16.55;49.02;100822.69;5012193;28;20723;-82
2022/09/06 10:04:32;;;;;;;2.88;0.60;;;;;;;16.51;49.28;100820.03;4999559;28;20046;-83
2022/09/06 10:07:14;;;;;;;0.90;0.50;;;;;;;16.48;49.65;100815.66;5017998;28;20406;-83
2022/09/06 10:09:45;;;;;;;0.82;0.40;;;;;;;16.46;49.79;100825.22;5004347;28;20046;-82
2022/09/06 10:12:19;;;;;;;2.05;0.57;;;;;;;16.42;49.82;100815.63;5002417;28;20666;-81
2022/09/06 10:14:50;;;;;;;1.38;0.68;;;;;;;16.41;49.96;100821.72;5004511;28;20046;-82
2022/09/06 10:17:30;;;;;;;4.68;0.55;;;;;;;16.40;49.58;100825.22;5014655;28;20557;-81
2022/09/06 10:20:02;;;;;;;0.93;0.43;;;;;;;16.35;50.95;100821.66;5006608;28;20749;-82
2022/09/06 10:22:32;;;;;;;1.13;0.68;;;;;;;16.26;52.45;100822.50;5009959;28;21326;-81
2022/09/06 10:25:15;;;;;;;0.70;0.52;;;;;;;16.23;52.85;100813.75;5006862;28;20046;-81
2022/09/06 10:28:00;;;;;;;0.43;0.43;;;;;;;16.20;52.88;100818.97;5003538;28;20060;-81
2022/09/06 10:30:33;;;;;;;1.00;0.55;;;;;;;16.16;53.70;100817.19;5004540;28;20046;-80
2022/09/06 10:33:08;;;;;;;1.63;0.35;;;;;;;16.16;52.04;100809.38;5007912;28;20404;-82
2022/09/06 10:35:38;;;;;;;2.13;0.50;;;;;;;16.12;51.68;100817.16;5014900;28;20049;-82
2022/09/06 10:38:31;;;;;;;1.17;0.40;;;;;;;16.11;51.88;100812.81;5016953;28;20053;-79
2022/09/06 10:41:28;;;;;;;0.95;0.43;;;;;;;16.14;52.56;100814.56;5013559;28;20057;-82
2022/09/06 10:44:08;;;;;;;1.55;0.70;;;;;;;16.14;51.59;100817.19;5010365;28;20056;-82
2022/09/06 10:46:41;;;;;;;1.15;0.55;;;;;;;16.12;50.92;100817.16;5010989;28;20523;-80
2022/09/06 10:49:14;;;;;;;0.65;0.40;;;;;;;16.12;50.61;100819.75;5007834;28;20608;-79
2022/09/06 10:51:48;;;;;;;3.10;0.60;;;;;;;16.12;51.01;100819.75;5010980;28;20053;-81
2022/09/06 10:54:22;;;;;;;0.90;0.70;;;;;;;16.12;51.48;100824.13;5012205;28;20137;-81
2022/09/06 10:56:57;;;;;;;1.02;0.57;;;;;;;16.07;51.51;100821.47;5007303;28;20050;-80
2022/09/06 10:59:31;;;;;;;0.60;0.40;;;;;;;16.03;51.41;100830.13;5009560;28;20054;-82
2022/09/06 11:02:15;;;;;;;6.75;0.50;;;;;;;16.00;51.17;100824.91;5005949;28;20510;-81
2022/09/06 11:04:46;;;;;;;0.30;0.30;;;;;;;15.98;50.59;100823.13;5008390;28;20105;-80
2022/09/06 11:07:21;;;;;;;1.63;0.50;;;;;;;15.95;50.73;100831.81;5007493;28;20049;-81
2022/09/06 11:09:56;;;;;;;1.75;0.60;;;;;;;15.98;51.20;100818.78;5019223;28;20046;-79
2022/09/06 11:12:33;;;;;;;0.75;0.55;;;;;;;15.99;51.33;100828.38;5015610;28;20042;-81
2022/09/06 11:15:03;;;;;;;1.98;0.73;;;;;;;15.96;51.76;100828.34;5005337;28;20050;-79
2022/09/06 11:17:40;;;;;;;1.65;1.30;;;;;;;15.91;51.10;100822.22;5006808;28;20128;-81
2022/09/06 11:20:15;;;;;;;1.10;0.80;;;;;;;15.85;50.81;100824.75;5008392;28;20492;-81
2022/09/06 11:22:57;;;;;;;1.52;0.57;;;;;;;15.82;51.82;100835.16;5012644;28;20049;-79
2022/09/06 11:25:50;;;;;;;0.30;0.30;;;;;;;15.77;52.09;100818.63;5019067;28;20582;-81
2022/09/06 11:28:27;;;;;;;1.38;0.68;;;;;;;15.72;51.94;100820.31;4977722;28;20420;-80
2022/09/06 11:30:58;;;;;;;3.30;0.45;;;;;;;15.64;51.90;100826.25;5019794;28;20062;-80
2022/09/06 11:33:34;;;;;;;2.05;0.93;;;;;;;15.61;51.93;100821.03;5011714;28;20061;-81
2022/09/06 11:36:18;;;;;;;1.15;0.57;;;;;;;15.56;51.85;100817.50;5011714;28;20077;-81
2022/09/06 11:38:56;;;;;;;1.13;0.63;;;;;;;15.53;52.86;100822.72;5010243;28;20085;-80
2022/09/06 11:41:30;;;;;;;2.35;0.70;;;;;;;15.48;52.50;100809.63;5017437;28;20450;-80
2022/09/06 11:44:00;;;;;;;1.30;0.70;;;;;;;15.41;52.66;100818.22;5004385;28;20046;-79
2022/09/06 11:46:59;;;;;;;4.05;0.60;;;;;;;15.36;52.66;100819.03;5012996;28;20049;-80
2022/09/06 11:49:40;;;;;;;0.55;0.50;;;;;;;15.28;52.95;100822.44;5007853;28;20049;-81